Time;durP1;ratioP1;P1;durP2;ratioP2;P2;SDS_P1;SDS_P2;PMS_P1;PMS_P2;Temp;Humidity;BMP_temperature;BMP_pressure;BME280_temperature;BME280_humidity;BME280_pressure;Samples;Min_cycle;Max_cycle;Signal;HPM_P1;HPM_P2
2023/06/17 00:00:08;;;;;;;9.00;6.00;;;;;;;;;;5074729;28;20189;-67
2023/06/17 00:02:35;;;;;;;8.33;6.33;;;;;;;;;;5075862;28;20192;-67
2023/06/17 00:05:02;;;;;;;11.23;6.00;;;;;;;;;;5074536;28;20261;-67
2023/06/17 00:07:28;;;;;;;9.23;6.50;;;;;;;;;;5075709;28;20236;-67
2023/06/17 00:09:54;;;;;;;6.70;6.00;;;;;;;;;;5074399;28;20217;-67
2023/06/17 00:12:21;;;;;;;6.97;5.33;;;;;;;;;;5075741;28;20174;-67
2023/06/17 00:14:47;;;;;;;6.73;5.97;;;;;;;;;;5075990;28;20162;-67
2023/06/17 00:17:14;;;;;;;8.40;5.40;;;;;;;;;;5074798;28;20200;-67
2023/06/17 00:19:40;;;;;;;11.30;6.00;;;;;;;;;;5075790;28;20595;-67
2023/06/17 00:22:08;;;;;;;8.57;5.50;;;;;;;;;;5075616;28;20192;-67
2023/06/17 00:24:34;;;;;;;6.03;5.10;;;;;;;;;;5074471;28;20185;-67
2023/06/17 00:27:00;;;;;;;6.17;5.13;;;;;;;;;;5075931;28;20324;-67
2023/06/17 00:29:26;;;;;;;8.50;5.43;;;;;;;;;;5074566;28;20201;-67
2023/06/17 00:31:52;;;;;;;5.80;5.20;;;;;;;;;;5075985;28;20177;-66
2023/06/17 00:34:18;;;;;;;7.47;5.97;;;;;;;;;;5075458;28;20166;-67
2023/06/17 00:36:44;;;;;;;7.43;5.80;;;;;;;;;;5074158;28;20185;-67
2023/06/17 00:39:10;;;;;;;9.82;5.63;;;;;;;;;;5072890;28;20448;-66
2023/06/17 00:41:36;;;;;;;7.57;5.70;;;;;;;;;;5072740;28;20386;-66
2023/06/17 00:44:02;;;;;;;8.35;6.10;;;;;;;;;;5074351;28;20715;-67
2023/06/17 00:46:34;;;;;;;8.07;6.90;;;;;;;;;;5073869;28;20858;-67
2023/06/17 00:49:01;;;;;;;7.10;6.05;;;;;;;;;;5074189;28;20387;-67
2023/06/17 00:51:28;;;;;;;7.50;6.32;;;;;;;;;;5072678;28;20542;-67
2023/06/17 00:53:54;;;;;;;6.43;5.63;;;;;;;;;;5073881;28;20429;-67
2023/06/17 00:56:21;;;;;;;8.60;5.50;;;;;;;;;;5073916;28;20376;-67
2023/06/17 00:58:48;;;;;;;7.10;6.03;;;;;;;;;;5073713;28;20418;-67
2023/06/17 01:01:15;;;;;;;6.80;6.03;;;;;;;;;;5073993;28;20395;-67
2023/06/17 01:03:41;;;;;;;8.95;6.03;;;;;;;;;;5073565;28;20935;-67
2023/06/17 01:06:13;;;;;;;6.63;5.93;;;;;;;;;;5073465;28;20423;-67
2023/06/17 01:08:44;;;;;;;8.52;6.45;;;;;;;;;;5073496;28;20474;-67
2023/06/17 01:11:14;;;;;;;6.68;5.97;;;;;;;;;;5073588;28;20446;-67
2023/06/17 01:13:44;;;;;;;7.32;6.20;;;;;;;;;;5073652;28;20376;-67
2023/06/17 01:16:10;;;;;;;7.18;5.80;;;;;;;;;;5072088;28;20742;-66
2023/06/17 01:18:37;;;;;;;9.27;6.57;;;;;;;;;;5071979;28;20387;-67
2023/06/17 01:21:03;;;;;;;8.57;6.38;;;;;;;;;;5071971;28;20407;-66
2023/06/17 01:23:37;;;;;;;7.68;6.40;;;;;;;;;;5073591;28;20383;-66
2023/06/17 01:26:03;;;;;;;8.70;6.50;;;;;;;;;;5074066;28;20382;-67
2023/06/17 01:28:30;;;;;;;6.68;6.07;;;;;;;;;;5070985;28;20380;-67
2023/06/17 01:30:56;;;;;;;7.30;6.35;;;;;;;;;;5072651;28;20788;-67
2023/06/17 01:33:23;;;;;;;6.95;6.25;;;;;;;;;;5071925;28;20388;-67
2023/06/17 01:36:01;;;;;;;7.47;6.30;;;;;;;;;;5074497;28;20441;-67
2023/06/17 01:38:46;;;;;;;7.40;6.53;;;;;;;;;;5072634;28;20372;-67
2023/06/17 01:41:15;;;;;;;7.18;6.05;;;;;;;;;;5072602;28;20904;-67
2023/06/17 01:43:41;;;;;;;8.85;6.63;;;;;;;;;;5071690;28;20866;-67
2023/06/17 01:46:08;;;;;;;6.73;6.13;;;;;;;;;;5072892;28;20384;-67
2023/06/17 01:48:33;;;;;;;8.80;6.70;;;;;;;;;;5071346;28;20407;-67
2023/06/17 01:50:59;;;;;;;7.57;6.53;;;;;;;;;;5071360;28;20453;-67
2023/06/17 01:53:26;;;;;;;10.90;6.50;;;;;;;;;;5071389;28;20377;-67
2023/06/17 01:55:52;;;;;;;7.30;6.40;;;;;;;;;;5072904;28;20903;-67
2023/06/17 01:58:19;;;;;;;9.37;6.70;;;;;;;;;;5071494;28;20411;-67
2023/06/17 02:00:45;;;;;;;8.45;6.47;;;;;;;;;;5071272;28;20380;-67
2023/06/17 02:03:11;;;;;;;7.30;6.60;;;;;;;;;;5073010;28;20921;-67
2023/06/17 02:05:37;;;;;;;8.02;6.57;;;;;;;;;;5073436;28;20380;-67
2023/06/17 02:08:04;;;;;;;7.10;6.40;;;;;;;;;;5073215;28;20481;-67
2023/06/17 02:10:30;;;;;;;10.37;6.23;;;;;;;;;;5071411;28;20422;-68
2023/06/17 02:12:56;;;;;;;8.05;6.43;;;;;;;;;;5073022;28;20885;-67
2023/06/17 02:15:22;;;;;;;7.38;6.30;;;;;;;;;;5071218;28;20384;-67
2023/06/17 02:17:48;;;;;;;7.70;6.50;;;;;;;;;;5072590;28;20382;-67
2023/06/17 02:20:14;;;;;;;9.00;6.75;;;;;;;;;;5071031;28;20889;-67
2023/06/17 02:22:40;;;;;;;8.40;6.35;;;;;;;;;;5071161;28;20387;-67
2023/06/17 02:25:07;;;;;;;7.28;6.47;;;;;;;;;;5070980;28;20380;-68
2023/06/17 02:27:33;;;;;;;7.60;6.80;;;;;;;;;;5070909;28;20418;-67
2023/06/17 02:30:00;;;;;;;9.00;7.22;;;;;;;;;;5072278;28;20482;-67
2023/06/17 02:32:27;;;;;;;8.90;6.70;;;;;;;;;;5070963;28;20418;-68
2023/06/17 02:34:54;;;;;;;10.57;7.28;;;;;;;;;;5072570;28;20426;-67
2023/06/17 02:37:20;;;;;;;8.80;7.63;;;;;;;;;;5072245;28;20382;-67
2023/06/17 02:39:46;;;;;;;7.50;6.70;;;;;;;;;;5070378;28;20376;-67
2023/06/17 02:42:12;;;;;;;8.15;7.00;;;;;;;;;;5070832;28;20923;-67
2023/06/17 02:44:38;;;;;;;8.02;7.32;;;;;;;;;;5070693;28;20383;-67
2023/06/17 02:47:04;;;;;;;7.72;7.00;;;;;;;;;;5072185;28;20406;-67
2023/06/17 02:49:30;;;;;;;9.80;7.05;;;;;;;;;;5072530;28;20371;-67
2023/06/17 02:51:56;;;;;;;8.30;7.00;;;;;;;;;;5072198;28;20376;-67
2023/06/17 02:54:22;;;;;;;9.40;7.10;;;;;;;;;;5071893;28;20388;-67
2023/06/17 02:56:48;;;;;;;10.00;6.93;;;;;;;;;;5096329;22;20471;-65
2023/06/17 02:59:15;;;;;;;8.27;7.47;;;;;;;;;;5072111;28;20395;-65
2023/06/17 03:01:42;;;;;;;9.40;7.70;;;;;;;;;;5071801;28;20424;-65
2023/06/17 03:04:12;;;;;;;8.07;7.00;;;;;;;;;;5073127;28;20189;-65
2023/06/17 03:06:40;;;;;;;7.87;7.13;;;;;;;;;;5071873;28;20201;-65
2023/06/17 03:09:07;;;;;;;7.60;6.90;;;;;;;;;;5071710;28;20174;-65
2023/06/17 03:11:33;;;;;;;8.30;6.80;;;;;;;;;;5073119;28;20205;-65
2023/06/17 03:13:59;;;;;;;8.37;7.57;;;;;;;;;;5073125;28;20256;-65
2023/06/17 03:16:25;;;;;;;6.73;6.13;;;;;;;;;;5072953;28;20197;-65
2023/06/17 03:18:51;;;;;;;7.83;7.10;;;;;;;;;;5071687;28;20205;-65
2023/06/17 03:21:17;;;;;;;11.00;7.33;;;;;;;;;;5073291;28;20186;-65
2023/06/17 03:23:43;;;;;;;7.53;6.83;;;;;;;;;;5072899;28;20181;-65
2023/06/17 03:26:09;;;;;;;12.13;6.70;;;;;;;;;;5072898;28;20221;-65
2023/06/17 03:28:36;;;;;;;8.57;6.97;;;;;;;;;;5071462;28;20628;-65
2023/06/17 03:31:02;;;;;;;7.67;6.90;;;;;;;;;;5072789;28;20236;-65
2023/06/17 03:33:28;;;;;;;9.37;7.50;;;;;;;;;;5072717;28;20185;-65
2023/06/17 03:35:55;;;;;;;7.93;7.13;;;;;;;;;;5071290;28;20225;-65
2023/06/17 03:38:21;;;;;;;8.83;6.83;;;;;;;;;;5071376;28;20580;-65
2023/06/17 03:40:47;;;;;;;8.20;7.37;;;;;;;;;;5071394;28;20204;-65
2023/06/17 03:43:13;;;;;;;7.50;6.80;;;;;;;;;;5072793;28;20298;-65
2023/06/17 03:45:39;;;;;;;8.60;7.33;;;;;;;;;;5071336;28;20322;-65
2023/06/17 03:48:05;;;;;;;7.73;6.97;;;;;;;;;;5071350;28;20182;-65
2023/06/17 03:50:31;;;;;;;9.03;7.30;;;;;;;;;;5072709;28;20212;-65
2023/06/17 03:52:57;;;;;;;7.67;6.90;;;;;;;;;;5073190;28;20182;-65
2023/06/17 03:55:24;;;;;;;9.30;7.40;;;;;;;;;;5075095;28;20693;-65
2023/06/17 03:57:51;;;;;;;8.30;7.40;;;;;;;;;;5076549;28;20150;-65
2023/06/17 04:00:17;;;;;;;9.27;7.57;;;;;;;;;;5074964;28;20192;-65
2023/06/17 04:02:44;;;;;;;8.17;7.30;;;;;;;;;;5075934;28;20550;-65
2023/06/17 04:05:11;;;;;;;8.20;7.40;;;;;;;;;;5076259;28;20639;-65
2023/06/17 04:07:38;;;;;;;7.90;7.20;;;;;;;;;;5076120;28;20631;-65
2023/06/17 04:10:05;;;;;;;8.10;7.30;;;;;;;;;;5075890;28;20202;-65
2023/06/17 04:12:31;;;;;;;11.73;8.70;;;;;;;;;;5075896;28;20177;-65
2023/06/17 04:14:57;;;;;;;10.87;7.97;;;;;;;;;;5075911;28;20189;-64
2023/06/17 04:17:23;;;;;;;9.17;8.27;;;;;;;;;;5076051;28;20182;-65
2023/06/17 04:19:48;;;;;;;11.70;7.90;;;;;;;;;;5075949;28;20178;-65
2023/06/17 04:22:14;;;;;;;9.50;8.47;;;;;;;;;;5074279;28;20178;-65
2023/06/17 04:24:40;;;;;;;9.70;8.60;;;;;;;;;;5075839;28;20178;-65
2023/06/17 04:27:07;;;;;;;8.40;7.47;;;;;;;;;;5075815;28;20208;-65
2023/06/17 04:29:34;;;;;;;9.80;8.20;;;;;;;;;;5075990;28;20181;-65
2023/06/17 04:32:01;;;;;;;8.47;7.70;;;;;;;;;;5074308;28;20182;-65
2023/06/17 04:34:27;;;;;;;10.23;8.13;;;;;;;;;;5075715;28;20174;-65
2023/06/17 04:36:59;;;;;;;8.27;7.47;;;;;;;;;;5073982;28;20208;-65
2023/06/17 04:39:28;;;;;;;8.40;7.60;;;;;;;;;;5074049;28;20253;-65
2023/06/17 04:41:54;;;;;;;9.27;8.20;;;;;;;;;;5075432;28;20671;-66
2023/06/17 04:44:20;;;;;;;8.80;7.90;;;;;;;;;;5075271;28;20182;-65
2023/06/17 04:46:48;;;;;;;9.50;7.90;;;;;;;;;;5075099;28;20200;-65
2023/06/17 04:49:14;;;;;;;9.97;6.93;;;;;;;;;;5075636;28;20174;-65
2023/06/17 04:51:40;;;;;;;10.68;8.63;;;;;;;;;;5073717;28;20838;-65
2023/06/17 04:54:06;;;;;;;13.87;11.43;;;;;;;;;;5075048;28;20169;-65
2023/06/17 04:56:32;;;;;;;12.27;11.07;;;;;;;;;;5073712;28;20482;-67
2023/06/17 04:58:58;;;;;;;11.25;10.15;;;;;;;;;;5074152;28;20423;-65
2023/06/17 05:01:24;;;;;;;10.18;9.27;;;;;;;;;;5073854;28;20384;-65
2023/06/17 05:03:50;;;;;;;10.50;7.93;;;;;;;;;;5074690;28;20177;-66
2023/06/17 05:06:16;;;;;;;12.47;8.27;;;;;;;;;;5073726;28;20262;-67
2023/06/17 05:08:42;;;;;;;9.37;8.47;;;;;;;;;;5075472;28;20181;-67
2023/06/17 05:11:08;;;;;;;8.93;8.03;;;;;;;;;;5074676;28;20205;-67
2023/06/17 05:13:34;;;;;;;12.80;8.57;;;;;;;;;;5074964;28;20257;-67
2023/06/17 05:16:00;;;;;;;16.00;8.17;;;;;;;;;;5074598;28;20275;-67
2023/06/17 05:18:26;;;;;;;10.27;8.77;;;;;;;;;;5074651;28;20181;-67
2023/06/17 05:20:52;;;;;;;9.50;8.47;;;;;;;;;;5073348;28;20186;-67
2023/06/17 05:23:18;;;;;;;10.27;8.33;;;;;;;;;;5073089;28;20662;-65
2023/06/17 05:25:44;;;;;;;13.43;9.13;;;;;;;;;;5074554;28;20701;-65
2023/06/17 05:28:10;;;;;;;8.80;7.97;;;;;;;;;;5074641;28;20184;-65
2023/06/17 05:30:39;;;;;;;11.17;8.43;;;;;;;;;;5075025;28;20229;-64
2023/06/17 05:33:04;;;;;;;13.67;9.20;;;;;;;;;;5073508;28;20186;-64
2023/06/17 05:35:30;;;;;;;16.17;8.90;;;;;;;;;;5074849;28;20725;-65
2023/06/17 05:37:56;;;;;;;26.10;10.90;;;;;;;;;;5074865;28;20645;-65
2023/06/17 05:40:22;;;;;;;15.77;10.77;;;;;;;;;;5073321;28;20574;-65
2023/06/17 05:42:48;;;;;;;16.33;10.67;;;;;;;;;;5074437;28;20635;-65
2023/06/17 05:45:14;;;;;;;17.03;11.10;;;;;;;;;;5074288;28;20202;-65
2023/06/17 05:47:40;;;;;;;23.57;11.23;;;;;;;;;;5074052;28;20178;-65
2023/06/17 05:50:06;;;;;;;17.57;11.30;;;;;;;;;;5072659;28;20636;-65
2023/06/17 05:52:32;;;;;;;17.30;11.20;;;;;;;;;;5074685;28;20201;-65
2023/06/17 05:54:58;;;;;;;19.27;12.07;;;;;;;;;;5073884;28;20174;-65
2023/06/17 05:57:24;;;;;;;17.63;12.40;;;;;;;;;;5074103;28;20178;-65
2023/06/17 05:59:50;;;;;;;15.03;11.67;;;;;;;;;;5072415;28;20174;-64
2023/06/17 06:02:16;;;;;;;20.43;12.37;;;;;;;;;;5072348;28;20189;-65
2023/06/17 06:04:42;;;;;;;18.77;11.73;;;;;;;;;;5074191;28;20178;-65
2023/06/17 06:07:08;;;;;;;17.33;11.67;;;;;;;;;;5073495;28;20201;-65
2023/06/17 06:09:34;;;;;;;23.93;12.27;;;;;;;;;;5073599;28;20202;-65
2023/06/17 06:12:00;;;;;;;21.40;12.23;;;;;;;;;;5073589;28;20209;-65
2023/06/17 06:14:26;;;;;;;22.63;11.00;;;;;;;;;;5073301;28;20173;-65
2023/06/17 06:16:52;;;;;;;15.63;11.80;;;;;;;;;;5073094;28;20238;-65
2023/06/17 06:19:18;;;;;;;16.57;11.07;;;;;;;;;;5073777;28;20262;-65
2023/06/17 06:21:44;;;;;;;19.03;11.97;;;;;;;;;;5073645;28;20188;-65
2023/06/17 06:24:10;;;;;;;16.43;11.23;;;;;;;;;;5073471;28;20204;-65
2023/06/17 06:26:36;;;;;;;17.33;10.87;;;;;;;;;;5073721;28;20198;-66
2023/06/17 06:29:02;;;;;;;17.60;10.97;;;;;;;;;;5073281;28;20659;-65
2023/06/17 06:31:28;;;;;;;19.33;11.73;;;;;;;;;;5073266;28;20198;-66
2023/06/17 06:33:54;;;;;;;14.03;10.33;;;;;;;;;;5073582;28;20730;-65
2023/06/17 06:36:20;;;;;;;12.77;10.03;;;;;;;;;;5072100;28;20223;-65
2023/06/17 06:38:46;;;;;;;21.63;10.33;;;;;;;;;;5073216;28;20545;-65
2023/06/17 06:41:12;;;;;;;18.57;9.80;;;;;;;;;;5071864;28;20242;-65
2023/06/17 06:43:38;;;;;;;14.17;9.57;;;;;;;;;;5073675;28;20186;-65
2023/06/17 06:46:04;;;;;;;15.67;9.30;;;;;;;;;;5072067;28;20271;-65
2023/06/17 06:48:30;;;;;;;21.47;10.10;;;;;;;;;;5071981;28;20643;-65
2023/06/17 06:50:56;;;;;;;18.63;9.07;;;;;;;;;;5073370;28;20255;-65
2023/06/17 06:53:23;;;;;;;13.77;8.43;;;;;;;;;;5073205;28;20177;-65
2023/06/17 06:55:50;;;;;;;10.80;8.97;;;;;;;;;;5072920;28;20698;-65
2023/06/17 06:58:16;;;;;;;13.50;8.63;;;;;;;;;;5071810;28;20651;-65
2023/06/17 07:00:42;;;;;;;12.67;8.40;;;;;;;;;;5073167;28;20268;-65
2023/06/17 07:03:07;;;;;;;13.80;8.17;;;;;;;;;;5073099;28;20206;-65
2023/06/17 07:05:33;;;;;;;16.53;7.30;;;;;;;;;;5071679;28;20740;-65
2023/06/17 07:08:00;;;;;;;9.77;6.57;;;;;;;;;;5073002;28;20682;-65
2023/06/17 07:10:26;;;;;;;10.90;6.57;;;;;;;;;;5071704;28;20209;-65
2023/06/17 07:12:52;;;;;;;9.67;6.33;;;;;;;;;;5071713;28;20174;-65
2023/06/17 07:15:18;;;;;;;7.50;5.70;;;;;;;;;;5071529;28;20189;-65
2023/06/17 07:17:44;;;;;;;10.00;6.07;;;;;;;;;;5073108;28;20185;-65
2023/06/17 07:20:10;;;;;;;8.00;6.13;;;;;;;;;;5071933;28;20186;-66
2023/06/17 07:22:36;;;;;;;6.63;5.50;;;;;;;;;;5073020;28;20254;-66
2023/06/17 07:25:02;;;;;;;8.00;5.00;;;;;;;;;;5071519;28;20589;-65
2023/06/17 07:27:28;;;;;;;6.70;4.77;;;;;;;;;;5075503;28;20295;-66
2023/06/17 07:29:54;;;;;;;7.40;5.53;;;;;;;;;;5076529;28;20198;-66
2023/06/17 07:32:20;;;;;;;5.57;5.07;;;;;;;;;;5076800;28;20174;-66
2023/06/17 07:34:46;;;;;;;5.77;5.03;;;;;;;;;;5076774;28;20181;-66
2023/06/17 07:37:12;;;;;;;8.07;4.93;;;;;;;;;;5076508;28;20190;-66
2023/06/17 07:39:38;;;;;;;9.67;5.50;;;;;;;;;;5076514;28;20255;-66
2023/06/17 07:42:04;;;;;;;5.03;4.53;;;;;;;;;;5075195;28;20227;-65
2023/06/17 07:44:32;;;;;;;7.60;4.87;;;;;;;;;;5076419;28;20181;-66
2023/06/17 07:46:58;;;;;;;8.50;5.20;;;;;;;;;;5076696;28;20197;-66
2023/06/17 07:49:24;;;;;;;13.77;5.23;;;;;;;;;;5077250;28;20182;-64
2023/06/17 07:51:51;;;;;;;7.87;4.70;;;;;;;;;;5075086;28;20174;-64
2023/06/17 07:54:17;;;;;;;5.90;4.83;;;;;;;;;;5074942;28;20265;-64
2023/06/17 07:56:43;;;;;;;6.03;4.97;;;;;;;;;;5076014;28;20229;-67
2023/06/17 07:59:09;;;;;;;8.13;5.17;;;;;;;;;;5074686;28;20170;-67
2023/06/17 08:01:37;;;;;;;4.70;4.30;;;;;;;;;;5076096;28;20176;-67
2023/06/17 08:04:03;;;;;;;5.93;5.00;;;;;;;;;;5074917;28;20178;-67
2023/06/17 08:06:29;;;;;;;6.53;4.70;;;;;;;;;;5075892;28;20202;-67
2023/06/17 08:08:55;;;;;;;6.53;4.67;;;;;;;;;;5075979;28;20178;-67
2023/06/17 08:11:21;;;;;;;10.43;5.10;;;;;;;;;;5076383;28;20212;-66
2023/06/17 08:13:47;;;;;;;5.40;4.77;;;;;;;;;;5074875;28;20174;-67
2023/06/17 08:16:13;;;;;;;6.70;4.73;;;;;;;;;;5076217;28;20568;-67
2023/06/17 08:18:39;;;;;;;6.63;4.63;;;;;;;;;;5076135;28;20632;-66
2023/06/17 08:21:05;;;;;;;6.30;4.63;;;;;;;;;;5076714;28;20666;-66
2023/06/17 08:23:31;;;;;;;6.80;4.90;;;;;;;;;;5074353;28;20655;-66
2023/06/17 08:25:57;;;;;;;5.27;4.77;;;;;;;;;;5075548;28;20678;-66
2023/06/17 08:28:22;;;;;;;4.70;4.20;;;;;;;;;;5074185;28;20199;-66
2023/06/17 08:30:49;;;;;;;5.03;4.50;;;;;;;;;;5075693;28;20243;-66
2023/06/17 08:33:15;;;;;;;7.60;4.20;;;;;;;;;;5075734;28;20208;-66
2023/06/17 08:35:41;;;;;;;5.10;4.47;;;;;;;;;;5074106;28;20204;-67
2023/06/17 08:38:07;;;;;;;8.80;4.53;;;;;;;;;;5073742;28;20174;-66
2023/06/17 08:40:34;;;;;;;18.90;5.17;;;;;;;;;;5075451;28;20557;-69
2023/06/17 08:43:02;;;;;;;5.47;4.90;;;;;;;;;;5074166;28;20186;-67
2023/06/17 08:45:27;;;;;;;13.77;5.07;;;;;;;;;;5075078;28;20201;-66
2023/06/17 08:47:53;;;;;;;5.77;4.50;;;;;;;;;;5074001;28;20189;-69
2023/06/17 08:50:20;;;;;;;5.87;4.90;;;;;;;;;;5073802;28;20204;-66
2023/06/17 08:52:48;;;;;;;6.30;5.00;;;;;;;;;;5074054;28;20185;-67
2023/06/17 08:55:14;;;;;;;8.50;4.67;;;;;;;;;;5075042;28;20182;-69
2023/06/17 08:57:40;;;;;;;7.17;5.17;;;;;;;;;;5074095;28;20174;-67
2023/06/17 09:00:10;;;;;;;5.53;4.93;;;;;;;;;;5075318;28;20217;-65
2023/06/17 09:02:37;;;;;;;6.47;5.23;;;;;;;;;;5074924;28;20185;-66
2023/06/17 09:05:04;;;;;;;11.77;5.53;;;;;;;;;;5098648;22;20236;-66
2023/06/17 09:07:30;;;;;;;5.20;4.70;;;;;;;;;;5075454;28;20235;-66
2023/06/17 09:09:56;;;;;;;5.40;4.77;;;;;;;;;;5074926;28;20205;-66
2023/06/17 09:12:25;;;;;;;10.70;5.30;;;;;;;;;;5075222;28;20224;-66
2023/06/17 09:14:53;;;;;;;6.80;5.57;;;;;;;;;;5073422;28;20273;-66
2023/06/17 09:17:30;;;;;;;7.10;4.77;;;;;;;;;;5074764;28;20173;-66
2023/06/17 09:19:56;;;;;;;7.60;5.40;;;;;;;;;;5073312;28;20177;-66
2023/06/17 09:22:26;;;;;;;5.87;5.37;;;;;;;;;;5073264;28;20182;-66
2023/06/17 09:24:58;;;;;;;6.50;5.00;;;;;;;;;;5074472;28;20219;-66
2023/06/17 09:27:25;;;;;;;12.27;5.77;;;;;;;;;;5074814;28;20158;-67
2023/06/17 09:30:13;;;;;;;8.60;5.80;;;;;;;;;;5073247;28;20205;-67
2023/06/17 09:32:40;;;;;;;7.17;5.57;;;;;;;;;;5073862;28;20535;-67
2023/06/17 09:35:07;;;;;;;8.97;6.30;;;;;;;;;;5074342;28;20194;-67
2023/06/17 09:37:33;;;;;;;6.73;5.17;;;;;;;;;;5075968;28;20180;-68
2023/06/17 09:39:59;;;;;;;7.47;6.40;;;;;;;;;;5074757;28;20178;-67
2023/06/17 09:42:32;;;;;;;7.37;5.70;;;;;;;;;;5073338;28;20194;-67
2023/06/17 09:45:03;;;;;;;9.73;5.53;;;;;;;;;;5074502;28;20284;-67
2023/06/17 09:47:38;;;;;;;6.87;6.17;;;;;;;;;;5073357;28;20181;-67
2023/06/17 09:50:06;;;;;;;7.80;5.97;;;;;;;;;;5072177;28;20205;-67
2023/06/17 09:52:36;;;;;;;10.37;6.20;;;;;;;;;;5072805;28;20265;-67
2023/06/17 09:55:05;;;;;;;12.33;6.03;;;;;;;;;;5074221;28;20201;-68
2023/06/17 09:57:31;;;;;;;10.70;5.47;;;;;;;;;;5073966;28;20181;-67
2023/06/17 10:00:00;;;;;;;9.30;5.53;;;;;;;;;;5073813;28;20177;-67
2023/06/17 10:02:29;;;;;;;11.47;6.20;;;;;;;;;;5074469;28;20173;-67
2023/06/17 10:04:55;;;;;;;6.73;5.77;;;;;;;;;;5072304;28;20308;-67
2023/06/17 10:07:25;;;;;;;7.80;5.33;;;;;;;;;;5072456;28;20173;-67
2023/06/17 10:09:51;;;;;;;8.67;5.73;;;;;;;;;;5072927;28;20292;-67
2023/06/17 10:12:18;;;;;;;7.73;5.53;;;;;;;;;;5074843;28;20218;-67
2023/06/17 10:14:45;;;;;;;9.87;5.50;;;;;;;;;;5074534;28;20191;-67
2023/06/17 10:17:12;;;;;;;13.53;5.67;;;;;;;;;;5072616;28;20182;-67
2023/06/17 10:19:41;;;;;;;7.43;5.50;;;;;;;;;;5074326;28;20259;-67
2023/06/17 10:22:10;;;;;;;6.90;5.40;;;;;;;;;;5072334;28;20177;-67
2023/06/17 10:24:36;;;;;;;6.20;5.60;;;;;;;;;;5073616;28;20534;-68
2023/06/17 10:27:03;;;;;;;7.37;4.97;;;;;;;;;;5072346;28;20187;-67
2023/06/17 10:29:29;;;;;;;10.40;5.20;;;;;;;;;;5073544;28;20648;-68
2023/06/17 10:31:55;;;;;;;7.27;5.33;;;;;;;;;;5074477;28;20186;-66
2023/06/17 10:34:21;;;;;;;8.63;5.67;;;;;;;;;;5074895;28;20613;-66
2023/06/17 10:36:48;;;;;;;6.30;5.70;;;;;;;;;;5074945;28;20620;-66
2023/06/17 10:39:14;;;;;;;8.17;5.00;;;;;;;;;;5074687;28;20201;-67
2023/06/17 10:41:40;;;;;;;6.13;5.23;;;;;;;;;;5072371;28;20651;-66
2023/06/17 10:44:30;;;;;;;5.43;4.87;;;;;;;;;;5072639;28;20209;-66
2023/06/17 10:46:56;;;;;;;5.73;5.10;;;;;;;;;;5073383;28;20592;-65
2023/06/17 10:49:22;;;;;;;5.23;4.40;;;;;;;;;;5075842;28;20202;-66
2023/06/17 10:51:49;;;;;;;8.03;5.00;;;;;;;;;;5073078;28;20210;-66
2023/06/17 10:54:15;;;;;;;8.33;5.10;;;;;;;;;;5072309;28;20186;-66
2023/06/17 10:56:47;;;;;;;6.90;5.03;;;;;;;;;;5073518;28;20194;-66
2023/06/17 10:59:13;;;;;;;5.27;4.77;;;;;;;;;;5073620;28;20189;-67
2023/06/17 11:01:42;;;;;;;6.07;5.13;;;;;;;;;;5074825;28;20185;-67
2023/06/17 11:04:08;;;;;;;5.80;5.20;;;;;;;;;;5076020;28;20276;-67
2023/06/17 11:06:34;;;;;;;7.23;5.13;;;;;;;;;;5077041;28;20255;-67
2023/06/17 11:09:04;;;;;;;7.93;5.67;;;;;;;;;;5074735;28;20383;-68
2023/06/17 11:11:30;;;;;;;6.93;4.93;;;;;;;;;;5075771;28;20224;-66
2023/06/17 11:13:56;;;;;;;6.07;5.37;;;;;;;;;;5075981;28;20177;-67
2023/06/17 11:16:22;;;;;;;7.53;4.83;;;;;;;;;;5075655;28;20201;-68
2023/06/17 11:18:48;;;;;;;5.73;4.67;;;;;;;;;;5077283;28;20540;-67
2023/06/17 11:21:15;;;;;;;6.30;5.13;;;;;;;;;;5075485;28;20182;-67
2023/06/17 11:23:42;;;;;;;6.00;4.80;;;;;;;;;;5076829;28;20188;-67
2023/06/17 11:26:09;;;;;;;5.57;5.07;;;;;;;;;;5075303;28;20209;-67
2023/06/17 11:28:35;;;;;;;5.80;5.10;;;;;;;;;;5075408;28;20213;-67
2023/06/17 11:31:05;;;;;;;6.27;5.23;;;;;;;;;;5075289;28;20205;-67
2023/06/17 11:33:32;;;;;;;5.43;4.73;;;;;;;;;;5075622;28;20661;-67
2023/06/17 11:35:59;;;;;;;5.77;5.17;;;;;;;;;;5075268;28;20194;-67
2023/06/17 11:38:26;;;;;;;9.73;5.20;;;;;;;;;;5076785;28;20231;-67
2023/06/17 11:40:53;;;;;;;10.87;5.60;;;;;;;;;;5076469;28;20182;-66
2023/06/17 11:43:24;;;;;;;6.30;5.20;;;;;;;;;;5075330;28;20177;-67
2023/06/17 11:45:50;;;;;;;14.43;5.33;;;;;;;;;;5075109;28;20197;-67
2023/06/17 11:48:17;;;;;;;6.17;4.70;;;;;;;;;;5075113;28;20235;-67
2023/06/17 11:50:43;;;;;;;6.40;5.30;;;;;;;;;;5074929;28;20206;-67
2023/06/17 11:53:09;;;;;;;8.00;5.50;;;;;;;;;;5077015;28;20253;-66
2023/06/17 11:55:36;;;;;;;6.30;5.23;;;;;;;;;;5076705;28;20197;-67
2023/06/17 11:58:03;;;;;;;7.43;5.30;;;;;;;;;;5076877;28;20185;-67
2023/06/17 12:00:29;;;;;;;11.50;5.80;;;;;;;;;;5076164;28;20174;-67
2023/06/17 12:02:56;;;;;;;5.80;5.20;;;;;;;;;;5076529;28;20231;-67
2023/06/17 12:05:26;;;;;;;8.60;5.10;;;;;;;;;;5076027;28;20221;-66
2023/06/17 12:07:52;;;;;;;5.40;4.90;;;;;;;;;;5074842;28;20214;-66
2023/06/17 12:10:18;;;;;;;5.83;5.27;;;;;;;;;;5074813;28;20259;-67
2023/06/17 12:12:45;;;;;;;5.73;5.10;;;;;;;;;;5073692;28;20178;-66
2023/06/17 12:15:12;;;;;;;5.97;5.23;;;;;;;;;;5076011;28;20728;-67
2023/06/17 12:17:45;;;;;;;6.00;4.87;;;;;;;;;;5074300;28;20647;-67
2023/06/17 12:20:15;;;;;;;10.73;5.10;;;;;;;;;;5075321;28;20227;-67
2023/06/17 12:22:41;;;;;;;6.67;4.97;;;;;;;;;;5076557;28;20303;-67
2023/06/17 12:25:08;;;;;;;7.87;4.90;;;;;;;;;;5077951;28;20667;-66
2023/06/17 12:27:34;;;;;;;10.10;4.93;;;;;;;;;;5076269;28;20290;-66
2023/06/17 12:30:00;;;;;;;5.63;5.00;;;;;;;;;;5074215;28;20666;-67
2023/06/17 12:32:27;;;;;;;5.63;5.03;;;;;;;;;;5075893;28;20202;-68
2023/06/17 12:34:53;;;;;;;6.97;4.70;;;;;;;;;;5074280;28;20615;-68
2023/06/17 12:37:23;;;;;;;9.00;4.40;;;;;;;;;;5075831;28;20174;-68
2023/06/17 12:39:49;;;;;;;5.20;4.70;;;;;;;;;;5074139;28;20657;-66
2023/06/17 12:42:17;;;;;;;7.33;4.80;;;;;;;;;;5075663;28;20742;-66
2023/06/17 12:44:44;;;;;;;5.70;5.07;;;;;;;;;;5073784;28;20178;-66
2023/06/17 12:47:10;;;;;;;7.23;4.83;;;;;;;;;;5075206;28;20522;-66
2023/06/17 12:49:36;;;;;;;8.60;5.00;;;;;;;;;;5075129;28;20644;-66
2023/06/17 12:52:02;;;;;;;5.47;4.77;;;;;;;;;;5075474;28;20272;-66
2023/06/17 12:54:28;;;;;;;6.78;5.22;;;;;;;;;;5073881;28;20640;-66
2023/06/17 12:56:54;;;;;;;7.35;4.97;;;;;;;;;;5075124;28;20246;-66
2023/06/17 12:59:21;;;;;;;5.97;4.75;;;;;;;;;;5074854;28;20256;-66
2023/06/17 13:01:47;;;;;;;5.90;5.30;;;;;;;;;;5074894;28;20653;-66
2023/06/17 13:04:13;;;;;;;5.18;4.70;;;;;;;;;;5073589;28;20189;-66
2023/06/17 13:06:39;;;;;;;5.82;4.82;;;;;;;;;;5073342;28;20224;-66
2023/06/17 13:09:06;;;;;;;9.73;5.80;;;;;;;;;;5073318;28;20186;-66
2023/06/17 13:11:32;;;;;;;5.68;4.78;;;;;;;;;;5074643;28;20320;-66
2023/06/17 13:13:57;;;;;;;5.47;4.97;;;;;;;;;;5074614;28;20214;-66
2023/06/17 13:16:23;;;;;;;6.40;5.27;;;;;;;;;;5073168;28;20202;-67
2023/06/17 13:18:49;;;;;;;9.43;5.03;;;;;;;;;;5074857;28;20170;-66
2023/06/17 13:21:15;;;;;;;5.33;4.93;;;;;;;;;;5074457;28;20192;-66
2023/06/17 13:23:41;;;;;;;7.43;5.53;;;;;;;;;;5074847;28;20178;-66
2023/06/17 13:26:07;;;;;;;6.43;5.30;;;;;;;;;;5073039;28;20197;-66
2023/06/17 13:28:34;;;;;;;5.50;4.95;;;;;;;;;;5073075;28;20178;-66
2023/06/17 13:31:01;;;;;;;6.90;5.25;;;;;;;;;;5074325;28;20671;-66
2023/06/17 13:33:27;;;;;;;6.10;5.50;;;;;;;;;;5074225;28;20219;-66
2023/06/17 13:35:53;;;;;;;5.97;5.35;;;;;;;;;;5074134;28;20276;-67
2023/06/17 13:38:19;;;;;;;6.18;5.60;;;;;;;;;;5072984;28;20174;-66
2023/06/17 13:40:45;;;;;;;6.53;5.30;;;;;;;;;;5074054;28;20192;-66
2023/06/17 13:43:12;;;;;;;6.20;5.32;;;;;;;;;;5074349;28;20177;-66
2023/06/17 13:45:38;;;;;;;5.82;5.32;;;;;;;;;;5073886;28;20209;-67
2023/06/17 13:48:04;;;;;;;7.50;5.85;;;;;;;;;;5074217;28;20182;-67
2023/06/17 13:50:30;;;;;;;10.45;6.10;;;;;;;;;;5074400;28;20217;-67
2023/06/17 13:52:58;;;;;;;6.90;5.43;;;;;;;;;;5073943;28;20179;-66
2023/06/17 13:55:24;;;;;;;5.45;4.90;;;;;;;;;;5073969;28;20196;-66
2023/06/17 13:57:51;;;;;;;15.30;5.07;;;;;;;;;;5074555;28;20280;-66
2023/06/17 14:00:17;;;;;;;8.35;5.72;;;;;;;;;;5073953;28;20181;-66
2023/06/17 14:02:43;;;;;;;6.55;5.50;;;;;;;;;;5073759;28;20182;-66
2023/06/17 14:05:09;;;;;;;6.70;5.03;;;;;;;;;;5072176;28;20231;-67
2023/06/17 14:07:35;;;;;;;5.65;5.15;;;;;;;;;;5072364;28;20189;-66
2023/06/17 14:10:01;;;;;;;6.68;5.47;;;;;;;;;;5072277;28;20209;-66
2023/06/17 14:12:27;;;;;;;6.00;5.45;;;;;;;;;;5072125;28;20177;-66
2023/06/17 14:14:53;;;;;;;6.40;5.00;;;;;;;;;;5073487;28;20209;-67
2023/06/17 14:17:20;;;;;;;6.85;5.25;;;;;;;;;;5072163;28;20181;-66
2023/06/17 14:19:46;;;;;;;7.18;5.75;;;;;;;;;;5073656;28;20195;-66
2023/06/17 14:22:11;;;;;;;9.45;5.57;;;;;;;;;;5072116;28;20714;-66
2023/06/17 14:24:38;;;;;;;7.32;5.63;;;;;;;;;;5073274;28;20178;-66
2023/06/17 14:27:23;;;;;;;9.88;5.85;;;;;;;;;;5073334;28;20647;-67
2023/06/17 14:29:49;;;;;;;6.75;5.30;;;;;;;;;;5073469;28;20452;-67
2023/06/17 14:32:15;;;;;;;7.15;5.38;;;;;;;;;;5072070;28;20173;-67
2023/06/17 14:34:41;;;;;;;8.23;5.05;;;;;;;;;;5073215;28;20204;-67